sensor_id;sensor_type;location;lat;lon;timestamp;pressure;altitude;pressure_sealevel;temperature;humidity
29569;BME280;16501;51.462;14.346;2023-05-14T00:00:13;100607.28;;;13.24;100.00
29569;BME280;16501;51.462;14.346;2023-05-14T00:02:38;100587.91;;;13.16;100.00
29569;BME280;16501;51.462;14.346;2023-05-14T00:05:04;100606.00;;;13.25;100.00
29569;BME280;16501;51.462;14.346;2023-05-14T00:07:29;100593.75;;;13.13;100.00
29569;BME280;16501;51.462;14.346;2023-05-14T00:09:58;100588.44;;;13.15;100.00
29569;BME280;16501;51.462;14.346;2023-05-14T00:12:24;100601.53;;;13.18;100.00
29569;BME280;16501;51.462;14.346;2023-05-14T00:14:50;100591.41;;;13.11;100.00
29569;BME280;16501;51.462;14.346;2023-05-14T00:17:15;100567.59;;;12.97;100.00
29569;BME280;16501;51.462;14.346;2023-05-14T00:19:41;100590.34;;;13.09;100.00
29569;BME280;16501;51.462;14.346;2023-05-14T00:22:07;100583.16;;;13.08;100.00
29569;BME280;16501;51.462;14.346;2023-05-14T00:24:33;100562.34;;;12.90;99.91
29569;BME280;16501;51.462;14.346;2023-05-14T00:26:58;100572.06;;;12.89;99.96
29569;BME280;16501;51.462;14.346;2023-05-14T00:29:24;100584.09;;;12.90;100.00
29569;BME280;16501;51.462;14.346;2023-05-14T00:31:49;100575.06;;;12.86;100.00
29569;BME280;16501;51.462;14.346;2023-05-14T00:34:14;100580.88;;;12.82;99.96
29569;BME280;16501;51.462;14.346;2023-05-14T00:36:39;100572.69;;;12.69;99.64
29569;BME280;16501;51.462;14.346;2023-05-14T00:39:05;100583.56;;;12.76;99.71
29569;BME280;16501;51.462;14.346;2023-05-14T00:41:30;100573.47;;;12.70;99.74
29569;BME280;16501;51.462;14.346;2023-05-14T00:43:55;100584.72;;;12.70;99.97
29569;BME280;16501;51.462;14.346;2023-05-14T00:46:21;100568.69;;;12.61;99.69
29569;BME280;16501;51.462;14.346;2023-05-14T00:48:46;100558.88;;;12.56;99.68
29569;BME280;16501;51.462;14.346;2023-05-14T00:51:12;100572.75;;;12.60;99.28
29569;BME280;16501;51.462;14.346;2023-05-14T00:53:37;100556.44;;;12.49;99.07
29569;BME280;16501;51.462;14.346;2023-05-14T00:56:03;100552.88;;;12.39;100.00
29569;BME280;16501;51.462;14.346;2023-05-14T00:58:29;100564.91;;;12.40;100.00
29569;BME280;16501;51.462;14.346;2023-05-14T01:00:54;100557.44;;;12.37;100.00
29569;BME280;16501;51.462;14.346;2023-05-14T01:03:22;100557.97;;;12.26;99.87
29569;BME280;16501;51.462;14.346;2023-05-14T01:11:02;100571.13;;;12.20;99.25
29569;BME280;16501;51.462;14.346;2023-05-14T01:15:58;100575.97;;;12.19;99.43
29569;BME280;16501;51.462;14.346;2023-05-14T01:18:26;100572.06;;;12.17;100.00
29569;BME280;16501;51.462;14.346;2023-05-14T01:20:53;100555.91;;;12.02;100.00
29569;BME280;16501;51.462;14.346;2023-05-14T01:23:18;100574.00;;;12.11;100.00
29569;BME280;16501;51.462;14.346;2023-05-14T01:25:44;100573.66;;;12.08;100.00
29569;BME280;16501;51.462;14.346;2023-05-14T01:28:22;100537.69;;;11.88;100.00
29569;BME280;16501;51.462;14.346;2023-05-14T01:30:56;100543.00;;;11.86;99.74
29569;BME280;16501;51.462;14.346;2023-05-14T01:33:25;100565.75;;;11.98;99.81
29569;BME280;16501;51.462;14.346;2023-05-14T01:35:52;100557.03;;;11.96;99.91
29569;BME280;16501;51.462;14.346;2023-05-14T01:38:19;100558.44;;;11.91;99.83
29569;BME280;16501;51.462;14.346;2023-05-14T01:40:45;100538.81;;;11.82;99.82
29569;BME280;16501;51.462;14.346;2023-05-14T01:43:12;100552.84;;;11.91;99.42
29569;BME280;16501;51.462;14.346;2023-05-14T01:45:37;100522.16;;;11.69;98.50
29569;BME280;16501;51.462;14.346;2023-05-14T01:48:04;100555.50;;;11.85;98.61
29569;BME280;16501;51.462;14.346;2023-05-14T01:50:29;100550.81;;;11.82;98.45
29569;BME280;16501;51.462;14.346;2023-05-14T01:52:54;100548.97;;;11.79;98.33
29569;BME280;16501;51.462;14.346;2023-05-14T01:55:23;100552.25;;;11.78;98.21
29569;BME280;16501;51.462;14.346;2023-05-14T01:57:49;100550.38;;;11.75;97.31
29569;BME280;16501;51.462;14.346;2023-05-14T02:00:15;100510.06;;;11.54;97.18
29569;BME280;16501;51.462;14.346;2023-05-14T02:02:40;100549.31;;;11.72;96.65
29569;BME280;16501;51.462;14.346;2023-05-14T02:05:06;100543.84;;;11.68;96.38
29569;BME280;16501;51.462;14.346;2023-05-14T02:07:31;100516.19;;;11.43;97.15
29569;BME280;16501;51.462;14.346;2023-05-14T02:09:57;100536.56;;;11.62;96.67
29569;BME280;16501;51.462;14.346;2023-05-14T02:12:22;100531.75;;;11.53;96.52
29569;BME280;16501;51.462;14.346;2023-05-14T02:14:47;100539.09;;;11.50;96.17
29569;BME280;16501;51.462;14.346;2023-05-14T02:17:13;100502.66;;;11.32;96.32
29569;BME280;16501;51.462;14.346;2023-05-14T02:19:40;100539.56;;;11.49;96.16
29569;BME280;16501;51.462;14.346;2023-05-14T02:22:05;100535.69;;;11.37;96.19
29569;BME280;16501;51.462;14.346;2023-05-14T02:24:31;100533.84;;;11.34;95.97
29569;BME280;16501;51.462;14.346;2023-05-14T02:26:56;100538.34;;;11.31;95.56
29569;BME280;16501;51.462;14.346;2023-05-14T02:29:24;100526.38;;;11.12;95.63
29569;BME280;16501;51.462;14.346;2023-05-14T02:31:49;100543.06;;;11.25;95.36
29569;BME280;16501;51.462;14.346;2023-05-14T02:34:14;100542.16;;;11.10;94.96
29569;BME280;16501;51.462;14.346;2023-05-14T02:36:40;100533.25;;;11.11;95.35
29569;BME280;16501;51.462;14.346;2023-05-14T02:39:05;100532.78;;;11.13;95.64
29569;BME280;16501;51.462;14.346;2023-05-14T02:41:31;100515.63;;;11.11;95.00
29569;BME280;16501;51.462;14.346;2023-05-14T02:43:56;100516.59;;;11.08;95.11
29569;BME280;16501;51.462;14.346;2023-05-14T02:46:21;100515.47;;;11.05;95.04
29569;BME280;16501;51.462;14.346;2023-05-14T02:48:46;100503.50;;;10.86;94.41
29569;BME280;16501;51.462;14.346;2023-05-14T02:51:12;100502.44;;;10.84;93.91
29569;BME280;16501;51.462;14.346;2023-05-14T02:53:37;100517.69;;;10.92;94.33
29569;BME280;16501;51.462;14.346;2023-05-14T02:56:02;100500.72;;;10.77;94.07
29569;BME280;16501;51.462;14.346;2023-05-14T02:58:28;100491.50;;;10.67;93.54
29569;BME280;16501;51.462;14.346;2023-05-14T03:00:53;100503.38;;;10.71;93.52
29569;BME280;16501;51.462;14.346;2023-05-14T03:03:19;100500.72;;;10.68;93.51
29569;BME280;16501;51.462;14.346;2023-05-14T03:05:44;100508.19;;;10.71;93.29
29569;BME280;16501;51.462;14.346;2023-05-14T03:08:09;100507.56;;;10.67;93.46
29569;BME280;16501;51.462;14.346;2023-05-14T03:10:35;100511.16;;;10.67;93.67
29569;BME280;16501;51.462;14.346;2023-05-14T03:13:00;100489.81;;;10.51;93.45
29569;BME280;16501;51.462;14.346;2023-05-14T03:15:25;100502.75;;;10.58;93.62
29569;BME280;16501;51.462;14.346;2023-05-14T03:17:50;100494.81;;;10.47;93.19
29569;BME280;16501;51.462;14.346;2023-05-14T03:20:16;100502.09;;;10.45;92.93
29569;BME280;16501;51.462;14.346;2023-05-14T03:22:41;100469.69;;;10.07;92.59
29569;BME280;16501;51.462;14.346;2023-05-14T03:25:07;100519.69;;;10.36;92.23
29569;BME280;16501;51.462;14.346;2023-05-14T03:27:32;100511.44;;;10.32;94.74
29569;BME280;16501;51.462;14.346;2023-05-14T03:29:58;100503.63;;;10.18;100.00
29569;BME280;16501;51.462;14.346;2023-05-14T03:32:23;100503.16;;;10.29;100.00
29569;BME280;16501;51.462;14.346;2023-05-14T03:34:49;100488.34;;;10.10;100.00
29569;BME280;16501;51.462;14.346;2023-05-14T03:37:14;100497.38;;;10.14;100.00
29569;BME280;16501;51.462;14.346;2023-05-14T03:39:40;100503.91;;;10.20;100.00
29569;BME280;16501;51.462;14.346;2023-05-14T03:42:05;100488.94;;;10.05;100.00
29569;BME280;16501;51.462;14.346;2023-05-14T03:44:30;100505.78;;;10.14;100.00
29569;BME280;16501;51.462;14.346;2023-05-14T03:46:56;100481.16;;;9.90;100.00
29569;BME280;16501;51.462;14.346;2023-05-14T03:49:21;100493.25;;;9.87;100.00
29569;BME280;16501;51.462;14.346;2023-05-14T03:51:46;100500.16;;;10.05;100.00
29569;BME280;16501;51.462;14.346;2023-05-14T03:54:11;100495.81;;;10.13;100.00
29569;BME280;16501;51.462;14.346;2023-05-14T03:56:37;100500.19;;;10.23;100.00
29569;BME280;16501;51.462;14.346;2023-05-14T03:59:02;100484.16;;;10.14;100.00
29569;BME280;16501;51.462;14.346;2023-05-14T04:01:27;100498.00;;;10.27;100.00
29569;BME280;16501;51.462;14.346;2023-05-14T04:03:54;100494.81;;;10.38;100.00
29569;BME280;16501;51.462;14.346;2023-05-14T04:06:19;100498.22;;;10.42;100.00
29569;BME280;16501;51.462;14.346;2023-05-14T04:08:44;100497.91;;;10.40;100.00
29569;BME280;16501;51.462;14.346;2023-05-14T04:11:10;100468.44;;;10.26;100.00
29569;BME280;16501;51.462;14.346;2023-05-14T04:13:35;100495.88;;;10.31;100.00
29569;BME280;16501;51.462;14.346;2023-05-14T04:16:00;100502.75;;;10.49;100.00
29569;BME280;16501;51.462;14.346;2023-05-14T04:18:25;100502.44;;;10.47;100.00
29569;BME280;16501;51.462;14.346;2023-05-14T04:20:51;100471.88;;;10.30;100.00
29569;BME280;16501;51.462;14.346;2023-05-14T04:23:16;100485.44;;;10.41;99.78
29569;BME280;16501;51.462;14.346;2023-05-14T04:25:41;100500.72;;;10.49;100.00
29569;BME280;16501;51.462;14.346;2023-05-14T04:28:06;100462.56;;;10.33;100.00
29569;BME280;16501;51.462;14.346;2023-05-14T04:30:31;100485.94;;;10.49;99.38
29569;BME280;16501;51.462;14.346;2023-05-14T04:32:57;100509.59;;;10.57;99.19
29569;BME280;16501;51.462;14.346;2023-05-14T04:35:22;100488.44;;;10.47;99.03
29569;BME280;16501;51.462;14.346;2023-05-14T04:37:47;100504.63;;;10.61;98.67
29569;BME280;16501;51.462;14.346;2023-05-14T04:40:13;100493.25;;;10.55;99.31
29569;BME280;16501;51.462;14.346;2023-05-14T04:42:41;100498.09;;;10.64;100.00
29569;BME280;16501;51.462;14.346;2023-05-14T04:45:06;100502.13;;;10.63;99.48
29569;BME280;16501;51.462;14.346;2023-05-14T04:47:33;100485.28;;;10.45;99.26
29569;BME280;16501;51.462;14.346;2023-05-14T04:49:58;100453.47;;;10.20;99.83
29569;BME280;16501;51.462;14.346;2023-05-14T04:52:24;100482.50;;;10.54;100.00
29569;BME280;16501;51.462;14.346;2023-05-14T04:54:49;100488.56;;;10.71;100.00
29569;BME280;16501;51.462;14.346;2023-05-14T04:57:15;100480.13;;;10.71;99.74
29569;BME280;16501;51.462;14.346;2023-05-14T04:59:40;100461.78;;;10.70;100.00
29569;BME280;16501;51.462;14.346;2023-05-14T05:02:05;100495.56;;;10.94;100.00
29569;BME280;16501;51.462;14.346;2023-05-14T05:04:31;100479.84;;;10.78;100.00
29569;BME280;16501;51.462;14.346;2023-05-14T05:06:56;100506.00;;;10.93;100.00
29569;BME280;16501;51.462;14.346;2023-05-14T05:09:21;100482.94;;;10.89;100.00
29569;BME280;16501;51.462;14.346;2023-05-14T05:11:46;100498.66;;;11.05;100.00
29569;BME280;16501;51.462;14.346;2023-05-14T05:14:12;100506.09;;;11.18;100.00
29569;BME280;16501;51.462;14.346;2023-05-14T05:16:37;100495.84;;;11.05;100.00
29569;BME280;16501;51.462;14.346;2023-05-14T05:19:02;100500.16;;;11.34;100.00
29569;BME280;16501;51.462;14.346;2023-05-14T05:21:28;100497.94;;;11.38;100.00
29569;BME280;16501;51.462;14.346;2023-05-14T05:23:53;100485.19;;;11.28;97.85
29569;BME280;16501;51.462;14.346;2023-05-14T05:26:18;100472.25;;;11.30;97.86
29569;BME280;16501;51.462;14.346;2023-05-14T05:28:43;100485.31;;;11.33;96.53
29569;BME280;16501;51.462;14.346;2023-05-14T05:31:09;100486.84;;;11.44;97.11
29569;BME280;16501;51.462;14.346;2023-05-14T05:33:34;100495.56;;;11.55;95.71
29569;BME280;16501;51.462;14.346;2023-05-14T05:35:59;100476.72;;;11.46;96.12
29569;BME280;16501;51.462;14.346;2023-05-14T05:38:25;100489.41;;;11.66;95.47
29569;BME280;16501;51.462;14.346;2023-05-14T05:40:50;100473.50;;;11.63;96.42
29569;BME280;16501;51.462;14.346;2023-05-14T05:43:16;100484.84;;;11.78;95.56
29569;BME280;16501;51.462;14.346;2023-05-14T05:45:41;100484.66;;;11.81;93.37
29569;BME280;16501;51.462;14.346;2023-05-14T05:48:07;100467.72;;;11.66;93.52
29569;BME280;16501;51.462;14.346;2023-05-14T05:50:32;100472.16;;;11.82;94.31
29569;BME280;16501;51.462;14.346;2023-05-14T05:52:57;100487.09;;;11.98;92.67
29569;BME280;16501;51.462;14.346;2023-05-14T05:55:25;100455.91;;;11.86;92.75
29569;BME280;16501;51.462;14.346;2023-05-14T05:57:51;100482.13;;;12.17;93.08
29569;BME280;16501;51.462;14.346;2023-05-14T06:00:16;100482.56;;;12.24;92.74
29569;BME280;16501;51.462;14.346;2023-05-14T06:02:42;100479.66;;;12.34;90.93
29569;BME280;16501;51.462;14.346;2023-05-14T06:05:08;100463.28;;;12.32;92.31
29569;BME280;16501;51.462;14.346;2023-05-14T06:07:34;100474.56;;;12.47;90.93
29569;BME280;16501;51.462;14.346;2023-05-14T06:09:59;100490.69;;;12.61;91.67
29569;BME280;16501;51.462;14.346;2023-05-14T06:12:25;100473.16;;;12.67;91.82
29569;BME280;16501;51.462;14.346;2023-05-14T06:14:50;100472.69;;;12.83;90.13
29569;BME280;16501;51.462;14.346;2023-05-14T06:17:16;100483.16;;;12.97;88.91
29569;BME280;16501;51.462;14.346;2023-05-14T06:19:41;100483.00;;;13.01;87.03
29569;BME280;16501;51.462;14.346;2023-05-14T06:22:06;100476.19;;;13.08;90.60
29569;BME280;16501;51.462;14.346;2023-05-14T06:24:31;100488.69;;;13.21;89.94
29569;BME280;16501;51.462;14.346;2023-05-14T06:26:57;100465.22;;;13.10;86.42
29569;BME280;16501;51.462;14.346;2023-05-14T06:29:22;100476.56;;;13.30;88.79
29569;BME280;16501;51.462;14.346;2023-05-14T06:31:47;100474.38;;;13.34;87.19
29569;BME280;16501;51.462;14.346;2023-05-14T06:34:13;100479.00;;;13.37;82.49
29569;BME280;16501;51.462;14.346;2023-05-14T06:36:38;100467.75;;;13.37;81.98
29569;BME280;16501;51.462;14.346;2023-05-14T06:39:04;100485.88;;;13.51;87.16
29569;BME280;16501;51.462;14.346;2023-05-14T06:41:29;100465.53;;;13.42;86.14
29569;BME280;16501;51.462;14.346;2023-05-14T06:43:54;100472.41;;;13.41;85.45
29569;BME280;16501;51.462;14.346;2023-05-14T06:46:20;100481.19;;;13.63;86.61
29569;BME280;16501;51.462;14.346;2023-05-14T06:48:45;100473.03;;;13.65;87.26
29569;BME280;16501;51.462;14.346;2023-05-14T06:51:11;100469.69;;;13.82;88.48
29569;BME280;16501;51.462;14.346;2023-05-14T06:53:37;100467.38;;;13.80;87.48
29569;BME280;16501;51.462;14.346;2023-05-14T06:56:03;100459.47;;;13.84;86.81
29569;BME280;16501;51.462;14.346;2023-05-14T06:58:28;100455.47;;;13.91;86.82
29569;BME280;16501;51.462;14.346;2023-05-14T07:00:54;100472.91;;;14.10;86.35
29569;BME280;16501;51.462;14.346;2023-05-14T07:03:19;100457.16;;;14.03;84.62
29569;BME280;16501;51.462;14.346;2023-05-14T07:05:46;100477.91;;;14.21;83.11
29569;BME280;16501;51.462;14.346;2023-05-14T07:08:11;100467.47;;;14.27;83.34
29569;BME280;16501;51.462;14.346;2023-05-14T07:10:36;100446.31;;;14.17;83.13
29569;BME280;16501;51.462;14.346;2023-05-14T07:13:03;100462.97;;;14.35;82.48
29569;BME280;16501;51.462;14.346;2023-05-14T07:15:28;100466.53;;;14.56;82.99
29569;BME280;16501;51.462;14.346;2023-05-14T07:17:53;100463.19;;;14.58;81.23
29569;BME280;16501;51.462;14.346;2023-05-14T07:20:19;100462.81;;;14.65;79.69
29569;BME280;16501;51.462;14.346;2023-05-14T07:22:44;100441.31;;;14.73;81.00
29569;BME280;16501;51.462;14.346;2023-05-14T07:25:09;100449.66;;;14.82;78.01
29569;BME280;16501;51.462;14.346;2023-05-14T07:27:34;100449.28;;;15.01;76.31
29569;BME280;16501;51.462;14.346;2023-05-14T07:30:00;100442.16;;;15.05;76.58
29569;BME280;16501;51.462;14.346;2023-05-14T07:32:25;100437.88;;;15.16;75.82
29569;BME280;16501;51.462;14.346;2023-05-14T07:34:50;100439.00;;;15.30;74.50
29569;BME280;16501;51.462;14.346;2023-05-14T07:37:15;100429.06;;;15.40;74.00
29569;BME280;16501;51.462;14.346;2023-05-14T07:39:41;100436.81;;;15.45;72.98
29569;BME280;16501;51.462;14.346;2023-05-14T07:42:06;100424.34;;;15.63;73.19
29569;BME280;16501;51.462;14.346;2023-05-14T07:44:31;100427.97;;;15.69;68.07
29569;BME280;16501;51.462;14.346;2023-05-14T07:46:57;100428.25;;;15.71;69.21
29569;BME280;16501;51.462;14.346;2023-05-14T07:49:22;100417.53;;;15.81;68.60
29569;BME280;16501;51.462;14.346;2023-05-14T07:51:47;100410.34;;;15.86;68.49
29569;BME280;16501;51.462;14.346;2023-05-14T07:54:12;100417.84;;;15.94;65.04
29569;BME280;16501;51.462;14.346;2023-05-14T07:56:38;100419.94;;;16.05;63.75
29569;BME280;16501;51.462;14.346;2023-05-14T07:59:03;100399.91;;;16.03;64.46
29569;BME280;16501;51.462;14.346;2023-05-14T08:01:28;100417.22;;;16.33;63.45
29569;BME280;16501;51.462;14.346;2023-05-14T08:03:54;100416.72;;;16.40;62.83
29569;BME280;16501;51.462;14.346;2023-05-14T08:06:19;100402.34;;;16.50;61.05
29569;BME280;16501;51.462;14.346;2023-05-14T08:08:45;100408.06;;;16.72;59.74
29569;BME280;16501;51.462;14.346;2023-05-14T08:11:11;100390.31;;;16.77;58.70
29569;BME280;16501;51.462;14.346;2023-05-14T08:13:36;100412.22;;;17.05;57.88
29569;BME280;16501;51.462;14.346;2023-05-14T08:16:01;100369.47;;;16.92;55.83
29569;BME280;16501;51.462;14.346;2023-05-14T08:18:27;100392.66;;;17.07;50.75
29569;BME280;16501;51.462;14.346;2023-05-14T08:20:52;100399.88;;;17.14;50.12
29569;BME280;16501;51.462;14.346;2023-05-14T08:23:17;100399.31;;;17.27;50.57
29569;BME280;16501;51.462;14.346;2023-05-14T08:25:42;100403.94;;;17.47;50.29
29569;BME280;16501;51.462;14.346;2023-05-14T08:28:08;100402.09;;;17.55;50.92
29569;BME280;16501;51.462;14.346;2023-05-14T08:30:33;100400.00;;;17.72;50.61
29569;BME280;16501;51.462;14.346;2023-05-14T08:32:59;100386.34;;;17.77;48.17
29569;BME280;16501;51.462;14.346;2023-05-14T08:35:24;100399.97;;;17.84;44.76
29569;BME280;16501;51.462;14.346;2023-05-14T08:37:49;100386.31;;;17.88;45.88
29569;BME280;16501;51.462;14.346;2023-05-14T08:40:16;100381.41;;;17.83;47.57
29569;BME280;16501;51.462;14.346;2023-05-14T08:42:42;100394.81;;;17.88;46.29
29569;BME280;16501;51.462;14.346;2023-05-14T08:45:19;100396.09;;;17.98;47.72
29569;BME280;16501;51.462;14.346;2023-05-14T08:47:47;100377.78;;;17.99;45.30
29569;BME280;16501;51.462;14.346;2023-05-14T08:50:16;100385.22;;;18.08;44.58
29569;BME280;16501;51.462;14.346;2023-05-14T08:52:43;100381.81;;;18.15;45.59
29569;BME280;16501;51.462;14.346;2023-05-14T08:55:10;100395.94;;;18.26;45.69
29569;BME280;16501;51.462;14.346;2023-05-14T08:57:36;100392.03;;;18.35;45.79
29569;BME280;16501;51.462;14.346;2023-05-14T09:00:03;100386.28;;;18.46;46.74
29569;BME280;16501;51.462;14.346;2023-05-14T09:02:32;100382.84;;;18.59;45.29
29569;BME280;16501;51.462;14.346;2023-05-14T09:04:59;100381.31;;;18.58;44.61
29569;BME280;16501;51.462;14.346;2023-05-14T09:07:24;100383.25;;;18.75;46.17
29569;BME280;16501;51.462;14.346;2023-05-14T09:09:51;100386.84;;;18.81;45.24
29569;BME280;16501;51.462;14.346;2023-05-14T09:12:16;100379.81;;;18.88;45.24
29569;BME280;16501;51.462;14.346;2023-05-14T09:14:42;100372.28;;;18.96;45.52
29569;BME280;16501;51.462;14.346;2023-05-14T09:17:08;100378.69;;;19.02;46.45
29569;BME280;16501;51.462;14.346;2023-05-14T09:19:33;100379.63;;;19.10;43.68
29569;BME280;16501;51.462;14.346;2023-05-14T09:21:58;100353.94;;;18.97;42.96
29569;BME280;16501;51.462;14.346;2023-05-14T09:24:25;100366.31;;;19.24;45.08
29569;BME280;16501;51.462;14.346;2023-05-14T09:26:53;100366.16;;;19.41;44.27
29569;BME280;16501;51.462;14.346;2023-05-14T09:29:18;100348.50;;;19.48;43.49
29569;BME280;16501;51.462;14.346;2023-05-14T09:31:44;100365.75;;;19.81;44.94
29569;BME280;16501;51.462;14.346;2023-05-14T09:34:09;100349.00;;;19.77;45.57
29569;BME280;16501;51.462;14.346;2023-05-14T09:36:35;100358.75;;;19.82;44.17
29569;BME280;16501;51.462;14.346;2023-05-14T09:39:02;100345.47;;;19.65;42.49
29569;BME280;16501;51.462;14.346;2023-05-14T09:41:28;100342.06;;;19.23;42.01
29569;BME280;16501;51.462;14.346;2023-05-14T09:43:53;100342.06;;;18.93;43.03
29569;BME280;16501;51.462;14.346;2023-05-14T09:46:20;100349.88;;;18.87;44.25
29569;BME280;16501;51.462;14.346;2023-05-14T09:48:46;100333.06;;;18.58;43.20
29569;BME280;16501;51.462;14.346;2023-05-14T09:51:12;100341.53;;;18.64;43.43
29569;BME280;16501;51.462;14.346;2023-05-14T09:53:37;100345.69;;;18.57;45.61
29569;BME280;16501;51.462;14.346;2023-05-14T09:56:03;100325.28;;;18.59;44.80
29569;BME280;16501;51.462;14.346;2023-05-14T09:58:29;100332.63;;;19.09;45.16
29569;BME280;16501;51.462;14.346;2023-05-14T10:00:56;100330.16;;;19.49;44.64
29569;BME280;16501;51.462;14.346;2023-05-14T10:03:24;100325.59;;;19.16;44.15
29569;BME280;16501;51.462;14.346;2023-05-14T10:05:50;100314.19;;;18.91;45.14
29569;BME280;16501;51.462;14.346;2023-05-14T10:08:25;100324.91;;;18.74;44.42
29569;BME280;16501;51.462;14.346;2023-05-14T10:10:53;100311.16;;;18.53;43.49
29569;BME280;16501;51.462;14.346;2023-05-14T10:13:25;100317.13;;;18.80;42.77
29569;BME280;16501;51.462;14.346;2023-05-14T10:16:01;100314.94;;;19.22;41.99
29569;BME280;16501;51.462;14.346;2023-05-14T10:18:30;100312.22;;;19.11;40.67
29569;BME280;16501;51.462;14.346;2023-05-14T10:21:03;100291.97;;;19.20;42.67
29569;BME280;16501;51.462;14.346;2023-05-14T10:23:29;100307.81;;;19.34;42.58
29569;BME280;16501;51.462;14.346;2023-05-14T10:25:58;100296.81;;;19.25;43.43
29569;BME280;16501;51.462;14.346;2023-05-14T10:28:24;100286.94;;;19.07;42.61
29569;BME280;16501;51.462;14.346;2023-05-14T10:30:50;100296.09;;;18.94;43.08
29569;BME280;16501;51.462;14.346;2023-05-14T10:33:15;100297.72;;;18.84;42.63
29569;BME280;16501;51.462;14.346;2023-05-14T10:35:57;100279.56;;;18.62;42.99
29569;BME280;16501;51.462;14.346;2023-05-14T10:38:27;100295.25;;;18.99;43.02
29569;BME280;16501;51.462;14.346;2023-05-14T10:41:01;100289.06;;;19.26;43.13
29569;BME280;16501;51.462;14.346;2023-05-14T10:43:27;100284.81;;;19.57;43.46
29569;BME280;16501;51.462;14.346;2023-05-14T10:45:57;100286.44;;;19.71;42.89
29569;BME280;16501;51.462;14.346;2023-05-14T10:48:23;100301.22;;;20.08;43.30
29569;BME280;16501;51.462;14.346;2023-05-14T10:50:50;100286.56;;;19.85;41.25
29569;BME280;16501;51.462;14.346;2023-05-14T10:53:15;100268.97;;;19.43;41.56
29569;BME280;16501;51.462;14.346;2023-05-14T10:55:41;100286.44;;;19.28;42.58
29569;BME280;16501;51.462;14.346;2023-05-14T10:58:09;100280.44;;;19.31;44.69
29569;BME280;16501;51.462;14.346;2023-05-14T11:00:35;100288.03;;;19.48;43.03
29569;BME280;16501;51.462;14.346;2023-05-14T11:03:16;100291.94;;;19.45;43.18
29569;BME280;16501;51.462;14.346;2023-05-14T11:05:42;100268.25;;;19.36;42.79
29569;BME280;16501;51.462;14.346;2023-05-14T11:08:09;100278.31;;;19.37;42.94
29569;BME280;16501;51.462;14.346;2023-05-14T11:10:35;100280.72;;;19.33;42.88
29569;BME280;16501;51.462;14.346;2023-05-14T11:13:02;100275.59;;;19.26;42.63
29569;BME280;16501;51.462;14.346;2023-05-14T11:15:30;100278.84;;;19.36;43.42
29569;BME280;16501;51.462;14.346;2023-05-14T11:17:55;100257.78;;;19.26;43.38
29569;BME280;16501;51.462;14.346;2023-05-14T11:20:21;100259.03;;;19.30;43.47
29569;BME280;16501;51.462;14.346;2023-05-14T11:22:47;100274.91;;;19.64;42.96
29569;BME280;16501;51.462;14.346;2023-05-14T11:25:13;100265.97;;;19.78;42.90
29569;BME280;16501;51.462;14.346;2023-05-14T11:27:40;100264.84;;;19.82;42.66
29569;BME280;16501;51.462;14.346;2023-05-14T11:30:14;100247.88;;;19.95;42.51
29569;BME280;16501;51.462;14.346;2023-05-14T11:32:39;100268.69;;;20.22;41.35
29569;BME280;16501;51.462;14.346;2023-05-14T11:37:30;100230.78;;;20.60;43.93
29569;BME280;16501;51.462;14.346;2023-05-14T11:39:59;100256.41;;;21.05;42.44
29569;BME280;16501;51.462;14.346;2023-05-14T11:42:25;100252.34;;;21.14;40.77
29569;BME280;16501;51.462;14.346;2023-05-14T11:44:51;100235.03;;;20.99;41.76
29569;BME280;16501;51.462;14.346;2023-05-14T11:47:19;100244.47;;;20.94;41.41
29569;BME280;16501;51.462;14.346;2023-05-14T11:49:45;100246.28;;;20.64;40.94
29569;BME280;16501;51.462;14.346;2023-05-14T11:52:13;100242.63;;;20.64;42.32
29569;BME280;16501;51.462;14.346;2023-05-14T11:54:39;100246.91;;;20.57;42.93
29569;BME280;16501;51.462;14.346;2023-05-14T11:57:25;100237.22;;;20.47;43.07
29569;BME280;16501;51.462;14.346;2023-05-14T11:59:54;100237.34;;;20.54;43.33
29569;BME280;16501;51.462;14.346;2023-05-14T12:02:21;100235.09;;;20.66;43.75
29569;BME280;16501;51.462;14.346;2023-05-14T12:04:50;100217.19;;;20.52;41.84
29569;BME280;16501;51.462;14.346;2023-05-14T12:07:16;100226.41;;;20.59;42.97
29569;BME280;16501;51.462;14.346;2023-05-14T12:09:44;100228.69;;;20.47;42.85
29569;BME280;16501;51.462;14.346;2023-05-14T12:12:14;100222.00;;;20.12;42.00
29569;BME280;16501;51.462;14.346;2023-05-14T12:14:41;100224.75;;;20.18;41.78
29569;BME280;16501;51.462;14.346;2023-05-14T12:17:14;100207.97;;;19.82;41.99
29569;BME280;16501;51.462;14.346;2023-05-14T12:19:41;100226.69;;;19.71;42.28
29569;BME280;16501;51.462;14.346;2023-05-14T12:22:07;100232.00;;;19.62;43.12
29569;BME280;16501;51.462;14.346;2023-05-14T12:24:33;100207.88;;;19.30;43.45
29569;BME280;16501;51.462;14.346;2023-05-14T12:27:00;100219.75;;;19.29;44.51
29569;BME280;16501;51.462;14.346;2023-05-14T12:29:25;100223.44;;;19.24;42.80
29569;BME280;16501;51.462;14.346;2023-05-14T12:31:50;100217.94;;;19.07;43.37
29569;BME280;16501;51.462;14.346;2023-05-14T12:34:16;100223.41;;;19.05;42.88
29569;BME280;16501;51.462;14.346;2023-05-14T12:36:42;100203.34;;;18.97;44.32
29569;BME280;16501;51.462;14.346;2023-05-14T12:39:09;100220.09;;;19.00;43.55
29569;BME280;16501;51.462;14.346;2023-05-14T12:41:35;100194.19;;;18.85;42.98